Time;durP1;ratioP1;P1;durP2;ratioP2;P2;SDS_P1;SDS_P2;PMS_P1;PMS_P2;Temp;Humidity;BMP_temperature;BMP_pressure;BME280_temperature;BME280_humidity;BME280_pressure;Samples;Min_cycle;Max_cycle;Signal;HPM_P1;HPM_P2
2021/09/17 00:00:54;;;;;;;11.97;7.00;;;15.30;99.90;;;;;;5090147;29;20201;-66
2021/09/17 00:03:29;;;;;;;8.53;6.70;;;15.30;99.90;;;;;;5090297;29;20237;-66
2021/09/17 00:06:02;;;;;;;10.97;6.70;;;15.30;99.90;;;;;;5107170;29;20559;-68
2021/09/17 00:08:34;;;;;;;11.30;7.83;;;15.30;99.90;;;;;;5106552;29;20234;-68
2021/09/17 00:11:07;;;;;;;8.73;6.07;;;15.30;99.90;;;;;;5090280;29;20241;-67
2021/09/17 00:13:39;;;;;;;9.53;6.73;;;15.30;99.90;;;;;;5106797;29;20277;-70
2021/09/17 00:16:13;;;;;;;9.30;6.87;;;15.30;99.90;;;;;;5106977;29;20586;-64
2021/09/17 00:18:46;;;;;;;8.40;6.23;;;15.30;99.90;;;;;;5107434;29;20291;-69
2021/09/17 00:21:18;;;;;;;10.20;5.93;;;15.30;99.90;;;;;;5107880;29;20588;-69
2021/09/17 00:23:50;;;;;;;9.93;6.30;;;15.30;99.90;;;;;;5107498;29;20229;-69
2021/09/17 00:26:24;;;;;;;9.20;6.17;;;15.30;99.90;;;;;;5107079;29;20252;-69
2021/09/17 00:28:59;;;;;;;7.87;5.27;;;15.30;99.90;;;;;;5090626;29;20541;-67
2021/09/17 00:31:31;;;;;;;9.70;5.47;;;15.30;99.90;;;;;;5089923;29;20251;-70
2021/09/17 00:34:05;;;;;;;8.43;5.67;;;15.30;99.90;;;;;;5106561;29;20336;-71
2021/09/17 00:36:37;;;;;;;8.07;5.87;;;15.30;99.90;;;;;;5106976;29;20292;-67
2021/09/17 00:39:13;;;;;;;7.80;5.97;;;15.30;99.90;;;;;;5089625;29;20332;-65
2021/09/17 00:41:45;;;;;;;7.17;5.50;;;15.20;99.90;;;;;;5090187;29;20280;-66
2021/09/17 00:44:28;;;;;;;6.77;5.87;;;15.20;99.90;;;;;;5106379;29;20654;-65
2021/09/17 00:47:00;;;;;;;10.93;6.50;;;15.20;99.90;;;;;;5106647;29;20666;-68
2021/09/17 00:49:32;;;;;;;9.27;6.20;;;15.20;99.90;;;;;;5106340;29;20333;-66
2021/09/17 00:52:05;;;;;;;8.20;6.30;;;15.20;99.90;;;;;;5089759;29;20209;-70
2021/09/17 00:54:38;;;;;;;9.20;6.20;;;15.20;99.90;;;;;;5090073;29;20260;-69
2021/09/17 00:57:11;;;;;;;8.30;5.67;;;15.20;99.90;;;;;;5106456;29;20313;-65
2021/09/17 00:59:43;;;;;;;9.20;5.83;;;15.20;99.90;;;;;;5074797;29;20328;-69
2021/09/17 01:02:18;;;;;;;8.50;6.23;;;15.20;99.90;;;;;;5107777;29;20229;-67
2021/09/17 01:04:50;;;;;;;8.80;5.73;;;15.20;99.90;;;;;;5108135;29;20259;-68
2021/09/17 01:07:23;;;;;;;10.07;6.67;;;15.10;99.90;;;;;;5108602;29;20202;-70
2021/09/17 01:09:57;;;;;;;12.03;6.37;;;15.10;99.90;;;;;;5107268;29;20316;-68
2021/09/17 01:12:29;;;;;;;10.93;6.83;;;15.10;99.90;;;;;;5091683;29;20921;-65
2021/09/17 01:15:06;;;;;;;10.33;6.70;;;15.10;99.90;;;;;;5093487;29;20593;-65
2021/09/17 01:17:41;;;;;;;8.73;7.07;;;15.10;99.90;;;;;;5110085;29;20236;-65
2021/09/17 01:20:19;;;;;;;11.40;7.20;;;15.10;99.90;;;;;;5093483;29;20267;-68
2021/09/17 01:22:51;;;;;;;9.70;7.23;;;15.10;99.90;;;;;;5110070;29;20615;-66
2021/09/17 01:25:28;;;;;;;8.50;6.13;;;15.10;99.90;;;;;;5109936;29;20277;-69
2021/09/17 01:28:00;;;;;;;8.77;6.47;;;15.10;99.90;;;;;;5078348;29;20204;-64
2021/09/17 01:30:32;;;;;;;7.70;6.60;;;15.10;99.90;;;;;;5093512;29;20693;-68
2021/09/17 01:33:04;;;;;;;8.77;6.33;;;15.10;99.90;;;;;;5093390;29;20248;-67
2021/09/17 01:35:39;;;;;;;9.27;6.47;;;15.00;99.90;;;;;;5093727;29;20296;-64
2021/09/17 01:38:11;;;;;;;8.30;6.07;;;15.00;99.90;;;;;;5109529;29;20221;-68
2021/09/17 01:40:44;;;;;;;6.23;5.60;;;14.90;99.90;;;;;;5109573;29;20222;-68
2021/09/17 01:43:16;;;;;;;10.03;6.37;;;14.90;99.90;;;;;;5092812;29;20205;-65
2021/09/17 01:45:48;;;;;;;9.30;6.03;;;14.90;99.90;;;;;;5077322;29;20226;-65
2021/09/17 01:48:20;;;;;;;8.93;6.13;;;14.80;99.90;;;;;;5109522;29;20297;-65
2021/09/17 01:50:53;;;;;;;9.40;6.57;;;14.70;99.90;;;;;;5077196;29;20268;-67
2021/09/17 01:53:25;;;;;;;9.97;6.57;;;14.70;99.90;;;;;;5109598;29;20213;-65
2021/09/17 01:55:58;;;;;;;11.70;6.47;;;14.60;99.90;;;;;;5109434;29;20494;-64
2021/09/17 01:58:32;;;;;;;9.80;7.10;;;14.60;99.90;;;;;;5109094;29;20273;-69
2021/09/17 02:01:04;;;;;;;8.07;6.83;;;14.50;99.90;;;;;;5109369;29;20320;-67
2021/09/17 02:03:36;;;;;;;10.83;7.37;;;14.50;99.90;;;;;;5109405;29;20206;-66
2021/09/17 02:06:09;;;;;;;12.03;7.87;;;14.50;99.90;;;;;;5092946;29;20312;-64
2021/09/17 02:08:41;;;;;;;9.90;7.57;;;14.50;99.90;;;;;;5093466;29;20209;-64
2021/09/17 02:11:13;;;;;;;9.70;6.97;;;14.40;99.90;;;;;;5109312;29;20284;-70
2021/09/17 02:13:45;;;;;;;7.90;6.93;;;14.40;99.90;;;;;;5110052;29;20296;-64
2021/09/17 02:16:22;;;;;;;9.17;7.00;;;14.40;99.90;;;;;;5109515;29;20237;-65
2021/09/17 02:18:55;;;;;;;8.90;6.53;;;14.40;99.90;;;;;;5093249;29;20265;-65
2021/09/17 02:21:29;;;;;;;9.63;8.10;;;14.30;99.90;;;;;;5108964;29;20225;-66
2021/09/17 02:24:01;;;;;;;8.53;7.03;;;14.30;99.90;;;;;;5092197;29;20293;-65
2021/09/17 02:26:33;;;;;;;7.67;6.37;;;14.30;99.90;;;;;;5092082;29;20265;-65
2021/09/17 02:29:05;;;;;;;8.67;6.80;;;14.30;99.90;;;;;;5109614;29;20221;-64
2021/09/17 02:31:38;;;;;;;11.23;7.50;;;14.30;99.90;;;;;;5092220;29;20324;-65
2021/09/17 02:34:10;;;;;;;9.93;7.30;;;14.20;99.90;;;;;;5076747;29;20301;-65
2021/09/17 02:36:42;;;;;;;9.47;6.97;;;14.20;99.90;;;;;;5108531;29;20279;-66
2021/09/17 02:39:17;;;;;;;12.93;8.43;;;14.20;99.90;;;;;;5091734;29;20249;-66
2021/09/17 02:41:49;;;;;;;10.43;8.00;;;14.20;99.90;;;;;;5108646;29;20225;-64
2021/09/17 02:44:21;;;;;;;12.07;8.40;;;14.20;99.90;;;;;;5108706;29;20571;-68
2021/09/17 02:46:56;;;;;;;9.33;7.70;;;14.20;99.90;;;;;;5108217;29;20324;-66
2021/09/17 02:49:30;;;;;;;9.30;7.30;;;14.20;99.90;;;;;;5108715;29;20284;-67
2021/09/17 02:52:03;;;;;;;10.83;8.57;;;14.20;99.90;;;;;;5108856;29;20702;-66
2021/09/17 02:54:38;;;;;;;10.77;8.50;;;14.20;99.90;;;;;;5109299;29;20292;-70
2021/09/17 02:57:10;;;;;;;11.37;8.47;;;14.20;99.90;;;;;;5108481;29;20665;-70
2021/09/17 02:59:42;;;;;;;11.30;8.20;;;14.20;99.90;;;;;;5108412;29;20260;-67
2021/09/17 03:02:15;;;;;;;11.40;8.37;;;14.20;99.90;;;;;;5108302;29;20300;-66
2021/09/17 03:04:48;;;;;;;12.93;8.53;;;14.20;99.90;;;;;;5091749;29;20300;-66
2021/09/17 03:07:20;;;;;;;8.53;7.27;;;14.20;99.90;;;;;;5107793;29;20292;-68
2021/09/17 03:09:52;;;;;;;9.97;7.90;;;14.20;99.90;;;;;;5108374;29;20232;-70
2021/09/17 03:12:24;;;;;;;10.67;7.70;;;14.10;99.90;;;;;;5091219;29;20245;-64
2021/09/17 03:14:56;;;;;;;8.00;6.80;;;14.10;99.90;;;;;;5091427;29;20244;-66
2021/09/17 03:17:28;;;;;;;10.00;7.37;;;14.10;99.90;;;;;;5107890;29;20399;-66
2021/09/17 03:20:00;;;;;;;8.80;7.77;;;14.10;99.90;;;;;;5091297;29;20301;-66
2021/09/17 03:22:32;;;;;;;9.27;6.93;;;14.00;99.90;;;;;;5091506;29;20214;-68
2021/09/17 03:25:06;;;;;;;11.73;8.53;;;14.00;99.90;;;;;;5108022;29;20209;-67
2021/09/17 03:27:38;;;;;;;11.73;9.73;;;14.00;99.90;;;;;;5091342;29;20596;-71
2021/09/17 03:30:11;;;;;;;13.50;9.63;;;14.00;99.90;;;;;;5107389;29;20293;-69
2021/09/17 03:32:43;;;;;;;13.80;10.53;;;14.00;99.90;;;;;;5107665;29;20209;-68
2021/09/17 03:35:16;;;;;;;13.07;10.67;;;14.00;99.90;;;;;;5090721;29;20293;-69
2021/09/17 03:37:49;;;;;;;16.50;10.63;;;14.10;99.90;;;;;;5107562;29;20255;-68
2021/09/17 03:40:26;;;;;;;16.73;11.87;;;14.10;99.90;;;;;;5107531;29;20689;-68
2021/09/17 03:42:58;;;;;;;12.73;10.83;;;14.10;99.90;;;;;;5108399;29;20549;-73
2021/09/17 03:45:32;;;;;;;16.20;11.43;;;14.10;99.90;;;;;;5092162;29;20267;-67
2021/09/17 03:48:11;;;;;;;13.93;10.33;;;14.10;99.90;;;;;;5107799;29;20260;-70
2021/09/17 03:50:46;;;;;;;13.10;10.03;;;14.20;99.90;;;;;;5107638;29;20298;-72
2021/09/17 03:53:18;;;;;;;12.90;9.87;;;14.10;99.90;;;;;;5107719;29;20256;-65
2021/09/17 03:55:55;;;;;;;11.17;9.53;;;14.20;99.90;;;;;;5107487;29;20311;-68
2021/09/17 03:58:27;;;;;;;11.20;10.00;;;14.20;99.90;;;;;;5107360;29;20280;-72
2021/09/17 04:00:59;;;;;;;13.10;10.00;;;14.20;99.90;;;;;;5090725;29;20244;-72
2021/09/17 04:03:32;;;;;;;15.23;11.07;;;14.30;99.90;;;;;;5107751;29;20217;-72
2021/09/17 04:06:05;;;;;;;13.50;10.57;;;14.30;99.90;;;;;;5107337;29;20205;-70
2021/09/17 04:08:37;;;;;;;13.30;9.70;;;14.30;99.90;;;;;;5107457;29;20626;-71
2021/09/17 04:11:12;;;;;;;12.80;9.20;;;14.30;99.90;;;;;;5074895;29;20646;-71
2021/09/17 04:13:44;;;;;;;14.17;10.10;;;14.40;99.90;;;;;;5107259;29;20212;-72
2021/09/17 04:16:16;;;;;;;12.43;9.20;;;14.40;99.90;;;;;;5107240;29;20209;-71
2021/09/17 04:18:50;;;;;;;14.80;9.67;;;14.40;99.90;;;;;;5107670;29;20259;-72
2021/09/17 04:21:22;;;;;;;11.27;8.80;;;14.40;99.90;;;;;;5091854;29;20200;-74
2021/09/17 04:23:55;;;;;;;11.33;9.77;;;14.40;99.90;;;;;;5109141;29;20209;-71
2021/09/17 04:26:27;;;;;;;10.93;8.73;;;14.40;99.90;;;;;;5107865;29;20592;-72
2021/09/17 04:29:01;;;;;;;12.77;8.93;;;14.40;99.90;;;;;;5092038;29;20213;-72
2021/09/17 04:31:36;;;;;;;11.83;8.67;;;14.30;99.90;;;;;;5108089;29;20243;-70
2021/09/17 04:34:11;;;;;;;12.87;9.27;;;14.30;99.90;;;;;;5107133;29;20209;-72
2021/09/17 04:36:43;;;;;;;11.40;8.17;;;14.30;99.90;;;;;;5107142;29;20212;-72
2021/09/17 04:39:15;;;;;;;12.20;8.83;;;14.30;99.90;;;;;;5107047;29;20324;-72
2021/09/17 04:41:47;;;;;;;10.77;8.77;;;14.40;99.90;;;;;;5090348;29;20233;-71
2021/09/17 04:44:20;;;;;;;11.60;7.83;;;14.30;99.90;;;;;;5107421;29;20252;-71
2021/09/17 04:46:52;;;;;;;9.63;7.93;;;14.40;99.90;;;;;;5107947;29;20288;-72
2021/09/17 04:49:24;;;;;;;11.90;8.43;;;14.40;99.90;;;;;;5111023;29;20568;-71
2021/09/17 04:51:56;;;;;;;10.50;8.13;;;14.50;99.90;;;;;;5110543;29;20257;-71
2021/09/17 04:54:28;;;;;;;11.27;7.97;;;14.50;99.90;;;;;;5111156;29;20538;-71
2021/09/17 04:57:01;;;;;;;8.73;7.37;;;14.60;99.90;;;;;;5110208;29;20596;-71
2021/09/17 04:59:33;;;;;;;9.07;6.73;;;14.60;99.90;;;;;;5093895;29;20214;-69
2021/09/17 05:02:05;;;;;;;8.17;6.13;;;14.70;99.90;;;;;;5110396;29;20261;-68
2021/09/17 05:04:37;;;;;;;7.83;5.93;;;14.80;99.90;;;;;;5110488;29;20206;-69
2021/09/17 05:07:11;;;;;;;9.03;5.87;;;14.80;99.90;;;;;;5110666;29;20604;-71
2021/09/17 05:09:43;;;;;;;10.17;6.47;;;14.90;99.90;;;;;;5110401;29;20241;-71
2021/09/17 05:12:15;;;;;;;7.73;6.00;;;15.00;99.90;;;;;;5093602;29;20241;-68
2021/09/17 05:14:47;;;;;;;9.40;5.63;;;15.00;99.90;;;;;;5093678;29;20343;-67
2021/09/17 05:17:19;;;;;;;6.03;5.40;;;15.00;99.90;;;;;;5110416;29;20260;-68
2021/09/17 05:20:00;;;;;;;6.50;5.70;;;15.10;99.90;;;;;;5109978;29;20314;-67
2021/09/17 05:22:32;;;;;;;6.60;5.40;;;15.10;99.90;;;;;;5109835;29;20237;-63
2021/09/17 05:25:05;;;;;;;6.93;5.17;;;15.10;99.90;;;;;;5110795;29;20202;-68
2021/09/17 05:27:38;;;;;;;8.20;5.33;;;15.10;99.90;;;;;;5109865;29;20273;-64
2021/09/17 05:30:12;;;;;;;6.17;4.83;;;15.10;99.90;;;;;;5110259;29;20263;-67
2021/09/17 05:32:44;;;;;;;5.97;4.50;;;15.20;99.90;;;;;;5110207;29;20574;-72
2021/09/17 05:35:17;;;;;;;5.73;4.43;;;15.20;99.90;;;;;;5110061;29;20244;-67
2021/09/17 05:37:49;;;;;;;10.70;6.07;;;15.20;99.90;;;;;;5110301;29;20291;-67
2021/09/17 05:40:21;;;;;;;8.40;5.70;;;15.30;99.90;;;;;;5109491;29;20249;-65
2021/09/17 05:42:53;;;;;;;7.03;5.20;;;15.30;99.90;;;;;;5108518;29;20277;-65
2021/09/17 05:45:25;;;;;;;5.87;5.20;;;15.30;99.90;;;;;;5110247;29;20240;-67
2021/09/17 05:47:57;;;;;;;12.63;6.60;;;15.40;99.90;;;;;;5109937;29;20653;-68
2021/09/17 05:50:29;;;;;;;6.80;5.00;;;15.40;99.90;;;;;;5109380;29;20529;-67
2021/09/17 05:53:01;;;;;;;7.97;6.73;;;15.50;99.90;;;;;;5109328;29;20280;-65
2021/09/17 05:55:33;;;;;;;8.03;6.57;;;15.60;99.90;;;;;;5093369;29;20655;-65
2021/09/17 05:58:05;;;;;;;7.20;5.63;;;15.70;99.90;;;;;;5108722;29;20336;-64
2021/09/17 06:00:38;;;;;;;8.63;6.63;;;15.80;99.90;;;;;;5109557;29;20225;-65
2021/09/17 06:03:10;;;;;;;15.43;7.17;;;15.90;99.90;;;;;;5109768;29;20230;-69
2021/09/17 06:05:42;;;;;;;10.73;7.50;;;15.90;99.90;;;;;;5109758;29;20213;-65
2021/09/17 06:08:14;;;;;;;9.37;7.27;;;16.00;99.90;;;;;;5108323;29;20265;-69
2021/09/17 06:10:46;;;;;;;11.17;7.13;;;16.10;99.90;;;;;;5109667;29;20221;-66
2021/09/17 06:13:18;;;;;;;9.33;6.30;;;16.10;99.90;;;;;;5110096;29;20237;-67
2021/09/17 06:15:50;;;;;;;8.67;7.13;;;16.10;99.90;;;;;;5092834;29;20667;-65
2021/09/17 06:18:45;;;;;;;7.07;5.47;;;16.10;99.90;;;;;;5076527;29;20230;-65
2021/09/17 06:21:17;;;;;;;9.83;6.03;;;16.20;99.90;;;;;;5090136;29;20257;-64
2021/09/17 06:23:49;;;;;;;8.93;6.00;;;16.20;99.90;;;;;;5073777;29;20234;-66
2021/09/17 06:26:21;;;;;;;9.03;6.77;;;16.30;99.90;;;;;;5089187;29;20210;-68
2021/09/17 06:28:55;;;;;;;7.80;6.33;;;16.40;99.90;;;;;;5073558;29;20661;-66
2021/09/17 06:31:29;;;;;;;6.97;5.77;;;16.50;99.90;;;;;;5105714;29;20206;-72
2021/09/17 06:34:05;;;;;;;9.57;7.50;;;16.60;99.90;;;;;;5112353;29;20225;-64
2021/09/17 06:36:37;;;;;;;7.17;6.43;;;16.80;99.90;;;;;;5107624;29;20645;-65
2021/09/17 06:39:09;;;;;;;7.17;5.47;;;16.80;99.90;;;;;;5106831;29;20265;-68
2021/09/17 06:41:41;;;;;;;7.47;5.90;;;16.90;99.90;;;;;;5091114;29;20229;-64
2021/09/17 06:44:13;;;;;;;7.17;6.33;;;16.90;99.90;;;;;;5107450;29;20292;-69
2021/09/17 06:46:45;;;;;;;7.53;6.10;;;17.00;99.90;;;;;;5092603;29;20217;-67
2021/09/17 06:49:17;;;;;;;7.87;5.80;;;17.00;99.90;;;;;;5127472;29;20243;-65
2021/09/17 06:51:49;;;;;;;8.00;6.20;;;17.00;99.90;;;;;;5119525;29;20205;-68
2021/09/17 06:54:21;;;;;;;9.27;6.30;;;17.00;99.90;;;;;;5108261;29;20682;-65
2021/09/17 06:56:53;;;;;;;6.83;4.80;;;17.10;99.90;;;;;;5108515;29;20524;-69
2021/09/17 06:59:25;;;;;;;8.23;5.20;;;17.20;99.90;;;;;;5108678;29;20550;-67
2021/09/17 07:01:58;;;;;;;6.30;4.27;;;17.40;99.90;;;;;;5108801;29;20250;-67
2021/09/17 07:04:30;;;;;;;7.33;5.60;;;17.50;99.90;;;;;;5108553;29;20289;-67
2021/09/17 07:07:02;;;;;;;5.63;4.67;;;17.70;99.90;;;;;;5109197;29;20626;-67
2021/09/17 07:09:34;;;;;;;6.07;4.37;;;17.80;99.90;;;;;;5108533;29;20495;-66
2021/09/17 07:12:06;;;;;;;7.10;6.07;;;17.90;99.90;;;;;;5092215;29;20194;-66
2021/09/17 07:14:39;;;;;;;8.50;6.20;;;18.00;99.90;;;;;;5108731;29;20210;-66
2021/09/17 07:17:10;;;;;;;9.05;6.10;;;17.90;99.90;;;;;;5108605;29;20206;-66
2021/09/17 07:19:42;;;;;;;7.15;5.43;;;18.00;99.90;;;;;;5107825;29;20312;-64
2021/09/17 07:22:16;;;;;;;6.28;5.40;;;18.00;99.90;;;;;;5091826;29;20220;-64
2021/09/17 07:24:48;;;;;;;6.05;4.93;;;17.90;99.90;;;;;;5108031;29;20633;-66
2021/09/17 07:27:20;;;;;;;6.78;5.03;;;18.00;99.90;;;;;;5107973;29;20273;-68
2021/09/17 07:29:53;;;;;;;8.52;4.78;;;18.20;99.90;;;;;;5107603;29;20220;-67
2021/09/17 07:32:25;;;;;;;6.30;4.23;;;18.30;99.90;;;;;;5091353;29;20284;-65
2021/09/17 07:34:57;;;;;;;5.47;4.63;;;18.30;99.90;;;;;;5107970;29;20373;-64
2021/09/17 07:37:29;;;;;;;6.50;4.93;;;18.40;99.90;;;;;;5107670;29;20297;-66
2021/09/17 07:40:03;;;;;;;5.60;4.20;;;18.40;99.90;;;;;;5107549;29;20248;-66
2021/09/17 07:42:35;;;;;;;7.70;5.28;;;18.40;99.90;;;;;;5107721;29;20205;-67
2021/09/17 07:45:09;;;;;;;8.30;4.85;;;18.30;99.90;;;;;;5107458;29;20201;-65
2021/09/17 07:47:44;;;;;;;5.22;4.68;;;18.30;99.90;;;;;;5091093;29;20240;-63
2021/09/17 07:50:17;;;;;;;7.43;5.25;;;18.20;99.90;;;;;;5107406;29;20275;-66
2021/09/17 07:52:49;;;;;;;5.07;4.55;;;18.20;99.90;;;;;;5090875;29;20241;-65
2021/09/17 07:55:21;;;;;;;5.10;3.97;;;18.20;99.90;;;;;;5107394;29;20597;-63
2021/09/17 07:57:53;;;;;;;5.03;4.27;;;18.20;99.90;;;;;;5107076;29;20245;-67
2021/09/17 08:00:25;;;;;;;4.73;3.50;;;18.30;99.90;;;;;;5107504;29;20812;-66
2021/09/17 08:02:57;;;;;;;5.75;3.80;;;18.40;99.90;;;;;;5107253;29;20210;-67
2021/09/17 08:05:30;;;;;;;5.45;4.50;;;18.30;99.90;;;;;;5107611;29;20595;-65
2021/09/17 08:08:02;;;;;;;5.13;4.30;;;18.30;99.90;;;;;;5107382;29;20249;-66
2021/09/17 08:10:36;;;;;;;6.72;4.00;;;18.20;99.90;;;;;;5090405;29;20233;-68
2021/09/17 08:13:13;;;;;;;5.05;4.55;;;18.20;99.90;;;;;;5075700;29;20189;-66
2021/09/17 08:15:45;;;;;;;6.20;4.03;;;18.20;99.90;;;;;;5106783;29;20237;-67
2021/09/17 08:18:17;;;;;;;6.78;4.00;;;18.20;99.90;;;;;;5107237;29;20237;-69
2021/09/17 08:20:53;;;;;;;5.43;4.18;;;18.20;99.90;;;;;;5108510;29;20320;-68
2021/09/17 08:23:26;;;;;;;4.75;4.13;;;18.30;99.90;;;;;;5094870;29;20217;-68
2021/09/17 08:25:58;;;;;;;4.53;4.10;;;18.40;99.90;;;;;;5111110;29;20264;-69
2021/09/17 08:28:30;;;;;;;6.13;3.65;;;18.40;99.90;;;;;;5111404;29;20597;-67
2021/09/17 08:31:03;;;;;;;4.07;3.67;;;18.30;99.90;;;;;;5111171;29;20273;-63
2021/09/17 08:33:35;;;;;;;4.20;3.80;;;18.30;99.90;;;;;;5111361;29;20702;-66
2021/09/17 08:36:09;;;;;;;3.25;2.95;;;18.20;99.90;;;;;;5110805;29;20228;-67
2021/09/17 08:38:41;;;;;;;6.90;3.42;;;18.20;99.90;;;;;;5110788;29;20221;-67
2021/09/17 08:41:15;;;;;;;3.17;2.80;;;18.20;99.90;;;;;;5110686;29;20320;-64
2021/09/17 08:43:49;;;;;;;6.10;3.17;;;18.30;99.90;;;;;;5110905;29;20237;-66
2021/09/17 08:46:22;;;;;;;4.85;3.33;;;18.40;99.90;;;;;;5094049;29;20381;-65
2021/09/17 08:48:54;;;;;;;3.90;3.13;;;18.40;99.90;;;;;;5110851;29;20277;-66
2021/09/17 08:51:26;;;;;;;4.15;3.13;;;18.40;99.90;;;;;;5093951;29;20666;-66
2021/09/17 08:54:03;;;;;;;3.58;3.22;;;18.50;99.90;;;;;;5110583;29;20253;-66
2021/09/17 08:56:35;;;;;;;4.18;2.95;;;18.50;99.90;;;;;;5078567;29;20284;-62
2021/09/17 08:59:09;;;;;;;3.97;2.80;;;18.70;99.90;;;;;;5110759;29;20241;-64
2021/09/17 09:01:41;;;;;;;4.18;3.60;;;18.90;99.90;;;;;;5110650;29;20278;-64
2021/09/17 09:04:14;;;;;;;3.60;2.97;;;19.00;99.90;;;;;;5110959;29;20222;-68
2021/09/17 09:06:46;;;;;;;4.15;2.95;;;19.20;99.90;;;;;;5094014;29;20237;-66
2021/09/17 09:09:20;;;;;;;3.40;3.10;;;19.30;99.90;;;;;;5110778;29;20259;-67
2021/09/17 09:11:53;;;;;;;4.07;2.55;;;19.50;99.90;;;;;;5110332;29;20276;-71
2021/09/17 09:14:25;;;;;;;2.78;2.58;;;19.50;99.90;;;;;;5110789;29;20670;-66
2021/09/17 09:17:03;;;;;;;4.95;3.20;;;19.40;99.90;;;;;;5110019;29;20272;-67
2021/09/17 09:19:37;;;;;;;4.18;3.10;;;19.30;99.90;;;;;;5109834;29;20280;-67
2021/09/17 09:22:11;;;;;;;7.53;3.33;;;19.20;99.90;;;;;;5093371;29;20265;-65
2021/09/17 09:24:49;;;;;;;3.95;2.85;;;19.10;99.90;;;;;;5110518;29;20205;-65
2021/09/17 09:27:24;;;;;;;3.60;2.78;;;19.00;99.90;;;;;;5110332;29;20280;-55
2021/09/17 09:29:59;;;;;;;2.85;2.53;;;18.80;99.90;;;;;;5093702;29;20296;-47
2021/09/17 09:32:34;;;;;;;6.07;3.22;;;18.70;99.90;;;;;;5109172;29;20225;-49
2021/09/17 09:35:09;;;;;;;7.63;3.03;;;18.60;99.90;;;;;;5110269;29;20316;-49
2021/09/17 09:37:43;;;;;;;4.78;2.90;;;18.50;99.90;;;;;;5109532;29;20247;-54
2021/09/17 09:40:17;;;;;;;5.63;2.67;;;18.50;99.90;;;;;;5093350;29;20256;-49
2021/09/17 09:42:49;;;;;;;6.13;2.72;;;18.50;99.90;;;;;;5109549;29;20232;-45
2021/09/17 09:45:23;;;;;;;3.78;2.55;;;18.60;99.90;;;;;;5110120;29;20214;-45
2021/09/17 09:47:56;;;;;;;8.60;2.75;;;18.70;99.90;;;;;;5092802;29;20292;-53
2021/09/17 09:50:29;;;;;;;5.55;2.38;;;18.70;99.90;;;;;;5093475;29;20347;-46
2021/09/17 09:53:03;;;;;;;4.20;1.95;;;18.90;99.90;;;;;;5109436;29;20241;-46
2021/09/17 09:55:36;;;;;;;3.53;2.10;;;19.00;99.90;;;;;;5092719;29;20304;-51
2021/09/17 09:58:09;;;;;;;2.53;1.95;;;19.10;99.90;;;;;;5109455;29;20324;-50
2021/09/17 10:00:42;;;;;;;3.40;1.88;;;19.10;99.90;;;;;;5109441;29;20226;-46
2021/09/17 10:03:16;;;;;;;2.33;1.90;;;19.10;99.90;;;;;;5109277;29;20324;-49
2021/09/17 10:05:49;;;;;;;4.47;1.80;;;19.10;99.90;;;;;;5092994;29;20205;-51
2021/09/17 10:08:21;;;;;;;5.90;1.40;;;19.10;99.90;;;;;;5109315;29;20635;-52
2021/09/17 10:10:54;;;;;;;4.78;1.52;;;19.00;99.90;;;;;;5109766;29;20609;-51
2021/09/17 10:13:29;;;;;;;7.43;1.60;;;19.00;99.90;;;;;;5109540;29;20320;-52
2021/09/17 10:16:03;;;;;;;4.30;1.25;;;19.00;99.90;;;;;;5109392;29;20209;-49
2021/09/17 10:18:41;;;;;;;2.75;1.63;;;19.00;99.90;;;;;;5109225;29;20229;-49
2021/09/17 10:21:35;;;;;;;1.67;1.05;;;18.90;99.90;;;;;;5109071;29;20614;-49
2021/09/17 10:24:25;;;;;;;2.05;1.30;;;18.80;99.90;;;;;;5092492;29;20272;-46
2021/09/17 10:27:04;;;;;;;2.40;1.20;;;18.80;99.90;;;;;;5109189;29;20249;-51
2021/09/17 10:29:39;;;;;;;3.88;1.48;;;18.80;99.90;;;;;;5109198;29;20288;-49
2021/09/17 10:32:26;;;;;;;2.85;1.40;;;18.80;99.90;;;;;;5109446;29;20216;-53
2021/09/17 10:35:22;;;;;;;4.18;1.30;;;18.80;99.90;;;;;;5109225;29;20269;-51
2021/09/17 10:38:06;;;;;;;2.58;1.20;;;18.80;99.90;;;;;;5108804;29;20354;-52
2021/09/17 10:40:51;;;;;;;3.42;1.20;;;18.90;99.90;;;;;;5108746;29;20252;-50
2021/09/17 10:43:29;;;;;;;2.13;1.17;;;19.00;99.90;;;;;;5108725;29;20327;-49
2021/09/17 10:46:19;;;;;;;2.33;1.52;;;19.00;99.90;;;;;;5107775;29;20206;-51
2021/09/17 10:48:56;;;;;;;3.70;1.55;;;18.90;99.90;;;;;;5108386;29;20221;-49
2021/09/17 10:51:35;;;;;;;6.63;1.60;;;18.80;99.90;;;;;;5091989;29;20308;-50
2021/09/17 10:54:16;;;;;;;2.67;1.60;;;18.60;99.90;;;;;;5109115;29;20241;-49
2021/09/17 10:56:50;;;;;;;3.65;1.50;;;18.40;99.90;;;;;;5108635;29;20601;-47
2021/09/17 10:59:27;;;;;;;3.63;1.58;;;18.40;99.90;;;;;;5108354;29;20230;-47
2021/09/17 11:02:08;;;;;;;3.90;1.70;;;18.40;99.90;;;;;;5092614;29;20217;-52
2021/09/17 11:04:47;;;;;;;2.30;1.80;;;18.30;99.90;;;;;;5092091;29;20545;-49
2021/09/17 11:07:22;;;;;;;3.20;1.63;;;18.30;99.90;;;;;;5108429;29;20201;-48
2021/09/17 11:09:56;;;;;;;2.20;2.00;;;18.30;99.90;;;;;;5108341;29;20681;-53
2021/09/17 11:12:38;;;;;;;2.08;1.70;;;18.40;99.90;;;;;;5108571;29;20217;-56
2021/09/17 11:15:18;;;;;;;3.55;1.88;;;18.30;99.90;;;;;;5107701;29;20304;-47
2021/09/17 11:17:56;;;;;;;2.58;1.33;;;18.10;99.90;;;;;;5108423;29;20217;-54
2021/09/17 11:20:30;;;;;;;4.10;1.60;;;18.20;99.90;;;;;;5091225;29;20247;-48
2021/09/17 11:23:06;;;;;;;2.13;1.88;;;18.20;99.90;;;;;;5108092;29;20583;-52
2021/09/17 11:25:43;;;;;;;4.25;1.92;;;18.40;99.90;;;;;;5108356;29;20257;-52
2021/09/17 11:28:27;;;;;;;2.38;1.70;;;18.50;99.90;;;;;;5091313;29;20209;-47
2021/09/17 11:31:12;;;;;;;1.50;1.30;;;18.70;99.90;;;;;;5107438;29;20293;-50
2021/09/17 11:33:55;;;;;;;2.42;1.35;;;18.90;99.90;;;;;;5108214;29;20226;-53
2021/09/17 11:36:40;;;;;;;1.85;1.40;;;19.00;99.90;;;;;;5108265;29;20213;-49
2021/09/17 11:39:12;;;;;;;2.20;1.33;;;19.20;99.90;;;;;;5108207;29;20587;-48
2021/09/17 11:41:49;;;;;;;3.15;1.20;;;19.30;99.90;;;;;;5091360;29;20308;-50
2021/09/17 11:44:46;;;;;;;2.53;1.10;;;19.40;99.90;;;;;;5107364;29;20197;-46
2021/09/17 11:47:24;;;;;;;1.55;1.30;;;19.50;99.90;;;;;;5107448;29;20209;-49
2021/09/17 11:50:13;;;;;;;1.42;1.00;;;19.60;99.90;;;;;;5108056;29;20229;-58
2021/09/17 11:52:51;;;;;;;1.50;1.13;;;19.60;99.90;;;;;;5107480;29;20245;-51
2021/09/17 11:55:26;;;;;;;2.97;1.15;;;19.60;99.90;;;;;;5106800;29;20232;-51
2021/09/17 11:57:59;;;;;;;2.45;1.23;;;19.70;99.90;;;;;;5107415;29;20749;-56
2021/09/17 12:00:31;;;;;;;1.92;1.30;;;19.60;99.90;;;;;;5107021;29;20233;-57
2021/09/17 12:03:08;;;;;;;2.25;1.33;;;19.60;99.90;;;;;;5107366;29;20201;-47
2021/09/17 12:05:44;;;;;;;4.13;1.20;;;19.70;99.90;;;;;;5090628;29;20625;-51
2021/09/17 12:08:19;;;;;;;4.00;1.40;;;19.90;99.90;;;;;;5108118;29;20481;-51
2021/09/17 12:10:59;;;;;;;2.00;1.60;;;20.10;99.90;;;;;;5107637;29;20249;-50
2021/09/17 12:13:33;;;;;;;2.05;1.65;;;20.10;99.90;;;;;;5107391;29;20647;-49
2021/09/17 12:16:06;;;;;;;2.85;1.73;;;19.90;99.90;;;;;;5107252;29;20708;-51
2021/09/17 12:18:41;;;;;;;3.25;1.58;;;19.90;99.90;;;;;;5090334;29;20284;-50
2021/09/17 12:21:20;;;;;;;2.53;1.42;;;19.90;99.90;;;;;;5090946;29;20323;-47
2021/09/17 12:24:22;;;;;;;2.95;1.55;;;19.70;99.90;;;;;;5107108;29;20186;-47
2021/09/17 12:26:59;;;;;;;2.60;1.77;;;19.60;99.90;;;;;;5107160;29;20663;-46
2021/09/17 12:29:31;;;;;;;2.70;1.70;;;19.50;99.90;;;;;;5107636;29;20559;-49
2021/09/17 12:32:18;;;;;;;3.15;1.80;;;19.50;99.90;;;;;;5107385;29;20659;-44
2021/09/17 12:35:05;;;;;;;2.97;1.85;;;19.50;99.90;;;;;;5107185;29;20245;-49
2021/09/17 12:37:40;;;;;;;3.58;1.83;;;19.40;99.90;;;;;;5090632;29;20251;-47
2021/09/17 12:40:19;;;;;;;4.45;2.22;;;19.40;99.90;;;;;;5107293;29;20325;-49
2021/09/17 12:42:58;;;;;;;5.30;2.35;;;19.30;99.90;;;;;;5107011;29;20329;-51
2021/09/17 12:45:31;;;;;;;2.92;2.13;;;19.20;99.90;;;;;;5105336;29;20248;-50
2021/09/17 12:48:05;;;;;;;3.50;1.95;;;19.10;99.90;;;;;;5087482;29;20608;-53
2021/09/17 12:50:44;;;;;;;3.30;2.33;;;19.10;99.90;;;;;;5106638;29;20289;-48
2021/09/17 12:53:20;;;;;;;4.03;1.95;;;18.90;99.90;;;;;;5107407;29;20252;-52
2021/09/17 12:56:04;;;;;;;2.35;1.98;;;18.90;99.90;;;;;;5106908;29;20268;-52
2021/09/17 12:58:39;;;;;;;4.22;2.80;;;18.80;99.90;;;;;;5086311;29;20297;-51
2021/09/17 13:01:11;;;;;;;5.50;3.53;;;18.70;99.90;;;;;;5086770;29;20674;-51
2021/09/17 13:03:44;;;;;;;4.20;3.30;;;18.50;99.90;;;;;;5086143;29;20258;-54
2021/09/17 13:06:16;;;;;;;3.33;3.03;;;18.40;99.90;;;;;;5086100;29;20210;-53
2021/09/17 13:08:48;;;;;;;6.75;3.85;;;18.30;99.90;;;;;;5089592;29;20244;-44
2021/09/17 13:11:23;;;;;;;5.70;3.85;;;18.30;99.90;;;;;;5090002;29;20249;-46
2021/09/17 13:13:55;;;;;;;4.97;3.92;;;18.20;99.90;;;;;;5090628;29;20229;-50
2021/09/17 13:16:27;;;;;;;8.85;4.43;;;18.10;99.90;;;;;;5090497;29;20282;-49
2021/09/17 13:18:59;;;;;;;7.45;4.07;;;18.00;99.90;;;;;;5091280;29;20225;-45